Akwesasne, New York
Current Conditions -  °F | °C
As of 12:53 PM on Tuesday 27 Jan 2015 (Local Time) from KMSS Reporting Station
Clear Clear  
Wind Chill: -9°   Ceiling: Unl
Heat Index: 10°   Visibility: 10mi
Dew Point: -5°   Wind: 21mph
Humidity: 51%   Direction: 50°NE
Pressure: 30.07"   Gusts: 30mph
Location:  44.9835°N, 74.6107°W
Report Text: KMSS 271753Z AUTO 05018G26KT 10SM CLR M12/M21 A3007 RMK AO2 PK WND 05027/1733 SLP192 T11221206 11122 21144 58010
Loading
Personal Weather Stations






























Interactive Weather Map New forecast layout! Learn more

10-Day Weather Forecast

Advertisements
Track Severe Weather on mobile